sensor_id;sensor_type;location;lat;lon;timestamp;P1;durP1;ratioP1;P2;durP2;ratioP2
34695;SDS011;20918;51.138;17.370;2022-12-15T00:00:27;114.20;;;53.10;;
34695;SDS011;20918;51.138;17.370;2022-12-15T00:03:47;105.85;;;51.10;;
34695;SDS011;20918;51.138;17.370;2022-12-15T00:07:06;104.70;;;50.20;;
34695;SDS011;20918;51.138;17.370;2022-12-15T00:10:26;92.75;;;42.13;;
34695;SDS011;20918;51.138;17.370;2022-12-15T00:13:45;89.13;;;43.87;;
34695;SDS011;20918;51.138;17.370;2022-12-15T00:17:05;96.10;;;47.50;;
34695;SDS011;20918;51.138;17.370;2022-12-15T00:20:24;102.40;;;49.88;;
34695;SDS011;20918;51.138;17.370;2022-12-15T00:23:44;117.35;;;57.25;;
34695;SDS011;20918;51.138;17.370;2022-12-15T00:27:05;107.67;;;51.00;;
34695;SDS011;20918;51.138;17.370;2022-12-15T00:30:25;102.87;;;47.58;;
34695;SDS011;20918;51.138;17.370;2022-12-15T00:33:45;89.45;;;44.13;;
34695;SDS011;20918;51.138;17.370;2022-12-15T00:37:04;94.75;;;45.80;;
34695;SDS011;20918;51.138;17.370;2022-12-15T00:40:24;94.55;;;45.67;;
34695;SDS011;20918;51.138;17.370;2022-12-15T00:43:25;105.70;;;52.33;;
34695;SDS011;20918;51.138;17.370;2022-12-15T00:46:31;121.47;;;54.23;;
34695;SDS011;20918;51.138;17.370;2022-12-15T00:49:54;119.10;;;57.27;;
34695;SDS011;20918;51.138;17.370;2022-12-15T00:53:13;120.95;;;57.48;;
34695;SDS011;20918;51.138;17.370;2022-12-15T00:56:32;116.65;;;57.05;;
34695;SDS011;20918;51.138;17.370;2022-12-15T00:59:52;127.40;;;59.90;;
34695;SDS011;20918;51.138;17.370;2022-12-15T01:03:12;127.80;;;58.28;;
34695;SDS011;20918;51.138;17.370;2022-12-15T01:06:38;123.97;;;58.02;;
34695;SDS011;20918;51.138;17.370;2022-12-15T01:09:57;113.60;;;55.27;;
34695;SDS011;20918;51.138;17.370;2022-12-15T01:13:18;120.85;;;55.50;;
34695;SDS011;20918;51.138;17.370;2022-12-15T01:16:37;120.53;;;56.73;;
34695;SDS011;20918;51.138;17.370;2022-12-15T01:19:57;120.67;;;55.98;;
34695;SDS011;20918;51.138;17.370;2022-12-15T01:23:17;126.80;;;57.98;;
34695;SDS011;20918;51.138;17.370;2022-12-15T01:26:18;115.95;;;54.00;;
34695;SDS011;20918;51.138;17.370;2022-12-15T01:29:20;115.82;;;55.52;;
34695;SDS011;20918;51.138;17.370;2022-12-15T01:32:21;123.65;;;57.03;;
34695;SDS011;20918;51.138;17.370;2022-12-15T01:35:25;110.90;;;53.42;;
34695;SDS011;20918;51.138;17.370;2022-12-15T01:38:27;116.47;;;53.98;;
34695;SDS011;20918;51.138;17.370;2022-12-15T01:41:28;112.40;;;53.23;;
34695;SDS011;20918;51.138;17.370;2022-12-15T01:44:30;110.60;;;53.78;;
34695;SDS011;20918;51.138;17.370;2022-12-15T01:47:31;129.23;;;56.95;;
34695;SDS011;20918;51.138;17.370;2022-12-15T01:50:33;123.60;;;58.05;;
34695;SDS011;20918;51.138;17.370;2022-12-15T01:56:59;135.97;;;60.50;;
34695;SDS011;20918;51.138;17.370;2022-12-15T02:00:06;130.70;;;64.32;;
34695;SDS011;20918;51.138;17.370;2022-12-15T02:03:11;133.03;;;61.18;;
34695;SDS011;20918;51.138;17.370;2022-12-15T02:06:14;139.10;;;65.10;;
34695;SDS011;20918;51.138;17.370;2022-12-15T02:09:18;137.68;;;62.67;;
34695;SDS011;20918;51.138;17.370;2022-12-15T02:15:55;123.95;;;57.90;;
34695;SDS011;20918;51.138;17.370;2022-12-15T02:19:08;121.65;;;57.88;;
34695;SDS011;20918;51.138;17.370;2022-12-15T02:29:36;129.30;;;59.40;;
34695;SDS011;20918;51.138;17.370;2022-12-15T02:32:49;130.67;;;59.80;;
34695;SDS011;20918;51.138;17.370;2022-12-15T02:39:00;133.85;;;61.60;;
34695;SDS011;20918;51.138;17.370;2022-12-15T02:42:01;143.57;;;63.28;;
34695;SDS011;20918;51.138;17.370;2022-12-15T02:45:11;132.35;;;62.25;;
34695;SDS011;20918;51.138;17.370;2022-12-15T02:55:10;133.47;;;59.95;;
34695;SDS011;20918;51.138;17.370;2022-12-15T03:04:56;128.15;;;58.58;;
34695;SDS011;20918;51.138;17.370;2022-12-15T03:07:58;131.85;;;58.05;;
34695;SDS011;20918;51.138;17.370;2022-12-15T03:11:00;127.60;;;59.18;;
34695;SDS011;20918;51.138;17.370;2022-12-15T03:14:04;134.22;;;59.42;;
34695;SDS011;20918;51.138;17.370;2022-12-15T03:17:05;131.10;;;60.00;;
34695;SDS011;20918;51.138;17.370;2022-12-15T03:20:08;143.75;;;63.08;;
34695;SDS011;20918;51.138;17.370;2022-12-15T03:23:11;133.30;;;60.95;;
34695;SDS011;20918;51.138;17.370;2022-12-15T03:26:12;142.07;;;64.13;;
34695;SDS011;20918;51.138;17.370;2022-12-15T03:29:13;149.32;;;66.35;;
34695;SDS011;20918;51.138;17.370;2022-12-15T03:32:14;139.95;;;65.57;;
34695;SDS011;20918;51.138;17.370;2022-12-15T03:35:15;140.70;;;68.45;;
34695;SDS011;20918;51.138;17.370;2022-12-15T03:38:16;145.40;;;66.67;;
34695;SDS011;20918;51.138;17.370;2022-12-15T03:41:18;143.80;;;65.20;;
34695;SDS011;20918;51.138;17.370;2022-12-15T03:44:20;147.02;;;65.67;;
34695;SDS011;20918;51.138;17.370;2022-12-15T03:47:21;145.68;;;65.60;;
34695;SDS011;20918;51.138;17.370;2022-12-15T03:50:23;148.20;;;64.17;;
34695;SDS011;20918;51.138;17.370;2022-12-15T03:53:27;141.07;;;64.35;;
34695;SDS011;20918;51.138;17.370;2022-12-15T03:56:28;143.28;;;64.40;;
34695;SDS011;20918;51.138;17.370;2022-12-15T03:59:29;135.03;;;66.12;;
34695;SDS011;20918;51.138;17.370;2022-12-15T04:02:30;139.05;;;65.47;;
34695;SDS011;20918;51.138;17.370;2022-12-15T04:05:32;137.22;;;64.53;;
34695;SDS011;20918;51.138;17.370;2022-12-15T04:08:34;153.05;;;67.12;;
34695;SDS011;20918;51.138;17.370;2022-12-15T04:11:35;148.80;;;65.92;;
34695;SDS011;20918;51.138;17.370;2022-12-15T04:14:36;139.37;;;65.70;;
34695;SDS011;20918;51.138;17.370;2022-12-15T04:17:39;146.60;;;67.87;;
34695;SDS011;20918;51.138;17.370;2022-12-15T04:20:42;143.43;;;65.87;;
34695;SDS011;20918;51.138;17.370;2022-12-15T04:23:43;143.50;;;65.03;;
34695;SDS011;20918;51.138;17.370;2022-12-15T04:27:03;134.47;;;59.80;;
34695;SDS011;20918;51.138;17.370;2022-12-15T04:30:22;127.47;;;60.50;;
34695;SDS011;20918;51.138;17.370;2022-12-15T04:33:43;134.95;;;61.05;;
34695;SDS011;20918;51.138;17.370;2022-12-15T04:37:09;137.45;;;61.92;;
34695;SDS011;20918;51.138;17.370;2022-12-15T04:40:32;148.25;;;63.90;;
34695;SDS011;20918;51.138;17.370;2022-12-15T04:43:52;129.68;;;60.10;;
34695;SDS011;20918;51.138;17.370;2022-12-15T04:47:12;138.43;;;61.37;;
34695;SDS011;20918;51.138;17.370;2022-12-15T04:50:31;131.75;;;60.60;;
34695;SDS011;20918;51.138;17.370;2022-12-15T04:53:51;139.07;;;61.77;;
34695;SDS011;20918;51.138;17.370;2022-12-15T04:57:10;141.92;;;60.43;;
34695;SDS011;20918;51.138;17.370;2022-12-15T05:00:30;146.43;;;61.58;;
34695;SDS011;20918;51.138;17.370;2022-12-15T05:03:50;131.85;;;59.42;;
34695;SDS011;20918;51.138;17.370;2022-12-15T05:07:09;135.85;;;61.40;;
34695;SDS011;20918;51.138;17.370;2022-12-15T05:10:29;128.60;;;60.30;;
34695;SDS011;20918;51.138;17.370;2022-12-15T05:13:48;139.55;;;60.67;;
34695;SDS011;20918;51.138;17.370;2022-12-15T05:17:08;148.05;;;63.80;;
34695;SDS011;20918;51.138;17.370;2022-12-15T05:20:28;146.03;;;62.03;;
34695;SDS011;20918;51.138;17.370;2022-12-15T05:23:47;128.93;;;58.87;;
34695;SDS011;20918;51.138;17.370;2022-12-15T05:27:07;121.65;;;54.35;;
34695;SDS011;20918;51.138;17.370;2022-12-15T05:30:27;110.70;;;51.92;;
34695;SDS011;20918;51.138;17.370;2022-12-15T05:33:48;115.30;;;53.58;;
34695;SDS011;20918;51.138;17.370;2022-12-15T05:36:49;110.00;;;51.10;;
34695;SDS011;20918;51.138;17.370;2022-12-15T05:39:50;110.00;;;51.18;;
34695;SDS011;20918;51.138;17.370;2022-12-15T05:42:51;110.75;;;52.73;;
34695;SDS011;20918;51.138;17.370;2022-12-15T05:45:52;112.68;;;52.53;;
34695;SDS011;20918;51.138;17.370;2022-12-15T05:48:53;103.17;;;48.38;;
34695;SDS011;20918;51.138;17.370;2022-12-15T05:51:54;94.72;;;47.70;;
34695;SDS011;20918;51.138;17.370;2022-12-15T05:54:56;106.47;;;49.65;;
34695;SDS011;20918;51.138;17.370;2022-12-15T05:57:57;104.17;;;50.33;;
34695;SDS011;20918;51.138;17.370;2022-12-15T06:01:05;103.35;;;52.25;;
34695;SDS011;20918;51.138;17.370;2022-12-15T06:04:13;105.83;;;51.90;;
34695;SDS011;20918;51.138;17.370;2022-12-15T06:07:17;100.72;;;48.40;;
34695;SDS011;20918;51.138;17.370;2022-12-15T06:10:18;102.92;;;48.68;;
34695;SDS011;20918;51.138;17.370;2022-12-15T06:13:20;101.20;;;49.77;;
34695;SDS011;20918;51.138;17.370;2022-12-15T06:16:25;105.27;;;50.80;;
34695;SDS011;20918;51.138;17.370;2022-12-15T06:19:29;100.22;;;47.80;;
34695;SDS011;20918;51.138;17.370;2022-12-15T06:22:32;97.60;;;46.42;;
34695;SDS011;20918;51.138;17.370;2022-12-15T06:25:33;105.52;;;50.10;;
34695;SDS011;20918;51.138;17.370;2022-12-15T06:28:34;98.40;;;48.65;;
34695;SDS011;20918;51.138;17.370;2022-12-15T06:31:36;100.58;;;48.78;;
34695;SDS011;20918;51.138;17.370;2022-12-15T06:34:38;102.80;;;49.42;;
34695;SDS011;20918;51.138;17.370;2022-12-15T06:37:43;102.55;;;47.78;;
34695;SDS011;20918;51.138;17.370;2022-12-15T06:40:44;102.40;;;48.23;;
34695;SDS011;20918;51.138;17.370;2022-12-15T06:43:49;100.85;;;48.65;;
34695;SDS011;20918;51.138;17.370;2022-12-15T06:46:55;98.47;;;47.17;;
34695;SDS011;20918;51.138;17.370;2022-12-15T06:49:56;93.03;;;42.78;;
34695;SDS011;20918;51.138;17.370;2022-12-15T06:52:57;87.97;;;42.93;;
34695;SDS011;20918;51.138;17.370;2022-12-15T06:56:02;82.62;;;40.70;;
34695;SDS011;20918;51.138;17.370;2022-12-15T06:59:11;81.72;;;41.80;;
34695;SDS011;20918;51.138;17.370;2022-12-15T07:02:15;81.87;;;40.58;;
34695;SDS011;20918;51.138;17.370;2022-12-15T07:05:23;81.45;;;41.05;;
34695;SDS011;20918;51.138;17.370;2022-12-15T07:08:24;133.22;;;65.08;;
34695;SDS011;20918;51.138;17.370;2022-12-15T07:11:26;143.52;;;74.92;;
34695;SDS011;20918;51.138;17.370;2022-12-15T07:14:30;116.20;;;51.23;;
34695;SDS011;20918;51.138;17.370;2022-12-15T07:17:31;86.15;;;42.48;;
34695;SDS011;20918;51.138;17.370;2022-12-15T07:20:32;85.35;;;40.95;;
34695;SDS011;20918;51.138;17.370;2022-12-15T07:23:34;88.20;;;41.77;;
34695;SDS011;20918;51.138;17.370;2022-12-15T07:26:43;82.53;;;40.88;;
34695;SDS011;20918;51.138;17.370;2022-12-15T07:29:45;83.82;;;40.75;;
34695;SDS011;20918;51.138;17.370;2022-12-15T07:32:46;73.72;;;38.70;;
34695;SDS011;20918;51.138;17.370;2022-12-15T07:35:51;102.87;;;47.23;;
34695;SDS011;20918;51.138;17.370;2022-12-15T07:39:02;100.27;;;45.70;;
34695;SDS011;20918;51.138;17.370;2022-12-15T07:42:13;96.35;;;43.20;;
34695;SDS011;20918;51.138;17.370;2022-12-15T07:45:18;90.00;;;41.58;;
34695;SDS011;20918;51.138;17.370;2022-12-15T07:48:24;100.87;;;42.88;;
34695;SDS011;20918;51.138;17.370;2022-12-15T07:51:28;113.62;;;49.27;;
34695;SDS011;20918;51.138;17.370;2022-12-15T07:54:29;84.35;;;42.10;;
34695;SDS011;20918;51.138;17.370;2022-12-15T07:57:30;75.85;;;37.93;;
34695;SDS011;20918;51.138;17.370;2022-12-15T08:00:32;74.75;;;37.93;;
34695;SDS011;20918;51.138;17.370;2022-12-15T08:03:33;73.33;;;38.80;;
34695;SDS011;20918;51.138;17.370;2022-12-15T08:06:38;90.62;;;40.33;;
34695;SDS011;20918;51.138;17.370;2022-12-15T08:09:40;78.35;;;38.20;;
34695;SDS011;20918;51.138;17.370;2022-12-15T08:12:47;78.15;;;38.20;;
34695;SDS011;20918;51.138;17.370;2022-12-15T08:15:51;74.50;;;34.35;;
34695;SDS011;20918;51.138;17.370;2022-12-15T08:18:59;71.30;;;35.10;;
34695;SDS011;20918;51.138;17.370;2022-12-15T08:22:00;62.73;;;32.05;;
34695;SDS011;20918;51.138;17.370;2022-12-15T08:25:04;67.03;;;33.18;;
34695;SDS011;20918;51.138;17.370;2022-12-15T08:28:05;71.35;;;33.30;;
34695;SDS011;20918;51.138;17.370;2022-12-15T08:31:11;53.10;;;27.00;;
34695;SDS011;20918;51.138;17.370;2022-12-15T08:34:20;55.23;;;28.42;;
34695;SDS011;20918;51.138;17.370;2022-12-15T08:37:22;59.35;;;28.95;;
34695;SDS011;20918;51.138;17.370;2022-12-15T08:40:30;56.80;;;30.15;;
34695;SDS011;20918;51.138;17.370;2022-12-15T08:43:31;55.85;;;28.80;;
34695;SDS011;20918;51.138;17.370;2022-12-15T08:46:33;56.05;;;28.85;;
34695;SDS011;20918;51.138;17.370;2022-12-15T08:49:47;57.78;;;27.93;;
34695;SDS011;20918;51.138;17.370;2022-12-15T08:52:48;44.30;;;23.50;;
34695;SDS011;20918;51.138;17.370;2022-12-15T08:55:51;42.70;;;22.65;;
34695;SDS011;20918;51.138;17.370;2022-12-15T08:58:54;48.08;;;24.15;;
34695;SDS011;20918;51.138;17.370;2022-12-15T09:02:00;43.83;;;23.22;;
34695;SDS011;20918;51.138;17.370;2022-12-15T09:05:06;40.23;;;21.60;;
34695;SDS011;20918;51.138;17.370;2022-12-15T09:08:05;45.03;;;24.35;;
34695;SDS011;20918;51.138;17.370;2022-12-15T09:11:14;41.30;;;23.50;;
34695;SDS011;20918;51.138;17.370;2022-12-15T09:14:16;43.73;;;23.25;;
34695;SDS011;20918;51.138;17.370;2022-12-15T09:17:20;38.98;;;21.87;;
34695;SDS011;20918;51.138;17.370;2022-12-15T09:20:24;48.63;;;24.65;;
34695;SDS011;20918;51.138;17.370;2022-12-15T09:23:33;48.85;;;25.90;;
34695;SDS011;20918;51.138;17.370;2022-12-15T09:26:35;46.53;;;24.95;;
34695;SDS011;20918;51.138;17.370;2022-12-15T09:29:36;47.83;;;25.77;;
34695;SDS011;20918;51.138;17.370;2022-12-15T09:32:37;48.73;;;24.18;;
34695;SDS011;20918;51.138;17.370;2022-12-15T09:35:39;44.03;;;24.43;;
34695;SDS011;20918;51.138;17.370;2022-12-15T09:39:01;41.83;;;23.25;;
34695;SDS011;20918;51.138;17.370;2022-12-15T09:42:03;41.20;;;22.40;;
34695;SDS011;20918;51.138;17.370;2022-12-15T09:45:14;40.38;;;21.77;;
34695;SDS011;20918;51.138;17.370;2022-12-15T09:48:23;40.98;;;22.48;;
34695;SDS011;20918;51.138;17.370;2022-12-15T09:51:45;39.53;;;21.00;;
34695;SDS011;20918;51.138;17.370;2022-12-15T09:55:01;43.33;;;22.52;;
34695;SDS011;20918;51.138;17.370;2022-12-15T09:58:13;41.88;;;21.95;;
34695;SDS011;20918;51.138;17.370;2022-12-15T10:01:33;39.18;;;22.20;;
34695;SDS011;20918;51.138;17.370;2022-12-15T10:08:09;43.55;;;21.55;;
34695;SDS011;20918;51.138;17.370;2022-12-15T10:11:20;34.78;;;19.62;;
34695;SDS011;20918;51.138;17.370;2022-12-15T10:14:51;41.33;;;20.50;;
34695;SDS011;20918;51.138;17.370;2022-12-15T10:18:04;38.42;;;20.23;;
34695;SDS011;20918;51.138;17.370;2022-12-15T10:21:21;40.63;;;21.62;;
34695;SDS011;20918;51.138;17.370;2022-12-15T10:24:30;51.48;;;23.52;;
34695;SDS011;20918;51.138;17.370;2022-12-15T10:27:37;45.25;;;21.73;;
34695;SDS011;20918;51.138;17.370;2022-12-15T10:34:14;44.90;;;23.50;;
34695;SDS011;20918;51.138;17.370;2022-12-15T10:37:24;42.85;;;22.10;;
34695;SDS011;20918;51.138;17.370;2022-12-15T10:40:47;36.75;;;19.52;;
34695;SDS011;20918;51.138;17.370;2022-12-15T10:43:52;37.88;;;20.92;;
34695;SDS011;20918;51.138;17.370;2022-12-15T10:46:57;39.83;;;21.02;;
34695;SDS011;20918;51.138;17.370;2022-12-15T10:50:20;47.23;;;23.07;;
34695;SDS011;20918;51.138;17.370;2022-12-15T10:53:32;53.42;;;23.95;;
34695;SDS011;20918;51.138;17.370;2022-12-15T10:56:52;50.60;;;23.75;;
34695;SDS011;20918;51.138;17.370;2022-12-15T11:00:41;42.90;;;21.40;;
34695;SDS011;20918;51.138;17.370;2022-12-15T11:03:20;61.70;;;28.62;;
34695;SDS011;20918;51.138;17.370;2022-12-15T11:06:27;64.70;;;29.32;;
34695;SDS011;20918;51.138;17.370;2022-12-15T11:09:38;60.17;;;28.35;;
34695;SDS011;20918;51.138;17.370;2022-12-15T11:12:39;52.03;;;25.35;;
34695;SDS011;20918;51.138;17.370;2022-12-15T11:15:53;45.28;;;21.37;;
34695;SDS011;20918;51.138;17.370;2022-12-15T11:19:03;38.20;;;20.90;;
34695;SDS011;20918;51.138;17.370;2022-12-15T11:25:50;43.10;;;23.12;;
34695;SDS011;20918;51.138;17.370;2022-12-15T11:32:48;41.83;;;23.73;;
34695;SDS011;20918;51.138;17.370;2022-12-15T11:39:26;37.15;;;20.05;;
34695;SDS011;20918;51.138;17.370;2022-12-15T11:46:20;34.35;;;20.77;;
34695;SDS011;20918;51.138;17.370;2022-12-15T11:56:13;40.88;;;21.55;;
34695;SDS011;20918;51.138;17.370;2022-12-15T12:02:56;41.40;;;21.62;;
34695;SDS011;20918;51.138;17.370;2022-12-15T12:06:22;39.18;;;21.82;;
34695;SDS011;20918;51.138;17.370;2022-12-15T12:09:29;36.90;;;22.07;;
34695;SDS011;20918;51.138;17.370;2022-12-15T12:12:37;36.45;;;20.43;;
34695;SDS011;20918;51.138;17.370;2022-12-15T12:15:58;47.78;;;23.05;;
34695;SDS011;20918;51.138;17.370;2022-12-15T12:23:08;39.95;;;20.62;;
34695;SDS011;20918;51.138;17.370;2022-12-15T12:26:21;39.20;;;20.75;;
34695;SDS011;20918;51.138;17.370;2022-12-15T12:29:37;32.35;;;18.85;;
34695;SDS011;20918;51.138;17.370;2022-12-15T12:36:09;31.77;;;17.80;;
34695;SDS011;20918;51.138;17.370;2022-12-15T12:39:17;33.23;;;18.65;;
34695;SDS011;20918;51.138;17.370;2022-12-15T12:42:24;33.60;;;18.50;;
34695;SDS011;20918;51.138;17.370;2022-12-15T12:45:39;30.40;;;18.57;;
34695;SDS011;20918;51.138;17.370;2022-12-15T12:48:58;32.30;;;18.95;;
34695;SDS011;20918;51.138;17.370;2022-12-15T12:52:15;39.85;;;20.95;;
34695;SDS011;20918;51.138;17.370;2022-12-15T12:55:28;34.18;;;19.30;;
34695;SDS011;20918;51.138;17.370;2022-12-15T12:58:40;38.40;;;20.32;;
34695;SDS011;20918;51.138;17.370;2022-12-15T13:01:42;40.65;;;21.50;;
34695;SDS011;20918;51.138;17.370;2022-12-15T13:04:51;40.05;;;20.27;;
34695;SDS011;20918;51.138;17.370;2022-12-15T13:14:52;41.65;;;20.75;;
34695;SDS011;20918;51.138;17.370;2022-12-15T13:17:59;41.88;;;20.27;;
34695;SDS011;20918;51.138;17.370;2022-12-15T13:24:54;36.38;;;19.42;;
34695;SDS011;20918;51.138;17.370;2022-12-15T13:27:59;35.75;;;19.45;;
34695;SDS011;20918;51.138;17.370;2022-12-15T13:34:23;33.80;;;19.62;;
34695;SDS011;20918;51.138;17.370;2022-12-15T13:37:42;36.90;;;20.27;;
34695;SDS011;20918;51.138;17.370;2022-12-15T13:40:58;33.30;;;18.23;;
34695;SDS011;20918;51.138;17.370;2022-12-15T13:43:59;32.98;;;19.02;;
34695;SDS011;20918;51.138;17.370;2022-12-15T13:47:08;36.38;;;22.05;;
34695;SDS011;20918;51.138;17.370;2022-12-15T13:50:30;35.85;;;19.32;;
34695;SDS011;20918;51.138;17.370;2022-12-15T13:53:37;32.40;;;19.33;;
34695;SDS011;20918;51.138;17.370;2022-12-15T14:00:04;40.50;;;21.33;;
34695;SDS011;20918;51.138;17.370;2022-12-15T14:03:11;38.58;;;21.35;;
34695;SDS011;20918;51.138;17.370;2022-12-15T14:06:12;33.28;;;20.65;;
34695;SDS011;20918;51.138;17.370;2022-12-15T14:09:23;37.55;;;20.62;;
34695;SDS011;20918;51.138;17.370;2022-12-15T14:12:34;34.45;;;19.60;;
34695;SDS011;20918;51.138;17.370;2022-12-15T14:15:40;45.78;;;25.17;;
34695;SDS011;20918;51.138;17.370;2022-12-15T14:19:10;41.58;;;22.73;;
34695;SDS011;20918;51.138;17.370;2022-12-15T14:22:21;36.10;;;20.62;;
34695;SDS011;20918;51.138;17.370;2022-12-15T14:25:28;37.25;;;20.40;;
34695;SDS011;20918;51.138;17.370;2022-12-15T14:28:33;40.12;;;21.42;;
34695;SDS011;20918;51.138;17.370;2022-12-15T14:31:36;43.33;;;23.02;;
34695;SDS011;20918;51.138;17.370;2022-12-15T14:34:39;39.70;;;21.85;;
34695;SDS011;20918;51.138;17.370;2022-12-15T14:37:45;41.18;;;21.10;;
34695;SDS011;20918;51.138;17.370;2022-12-15T14:40:49;41.48;;;20.60;;
34695;SDS011;20918;51.138;17.370;2022-12-15T14:43:59;44.75;;;23.07;;
34695;SDS011;20918;51.138;17.370;2022-12-15T14:47:14;47.27;;;23.90;;
34695;SDS011;20918;51.138;17.370;2022-12-15T14:50:20;54.70;;;28.12;;
34695;SDS011;20918;51.138;17.370;2022-12-15T14:53:27;48.87;;;26.68;;
34695;SDS011;20918;51.138;17.370;2022-12-15T14:56:34;53.68;;;28.38;;
34695;SDS011;20918;51.138;17.370;2022-12-15T14:59:38;49.30;;;27.42;;
34695;SDS011;20918;51.138;17.370;2022-12-15T15:02:43;53.48;;;25.20;;
34695;SDS011;20918;51.138;17.370;2022-12-15T15:05:45;43.40;;;23.18;;
34695;SDS011;20918;51.138;17.370;2022-12-15T15:09:10;48.40;;;24.05;;
34695;SDS011;20918;51.138;17.370;2022-12-15T15:12:23;51.90;;;26.17;;
34695;SDS011;20918;51.138;17.370;2022-12-15T15:15:41;50.83;;;25.37;;
34695;SDS011;20918;51.138;17.370;2022-12-15T15:18:49;44.27;;;23.62;;
34695;SDS011;20918;51.138;17.370;2022-12-15T15:21:54;39.65;;;21.73;;
34695;SDS011;20918;51.138;17.370;2022-12-15T15:24:55;39.58;;;21.25;;
34695;SDS011;20918;51.138;17.370;2022-12-15T15:31:30;38.15;;;21.02;;
34695;SDS011;20918;51.138;17.370;2022-12-15T15:34:36;51.00;;;26.50;;
34695;SDS011;20918;51.138;17.370;2022-12-15T15:37:38;49.38;;;25.02;;
34695;SDS011;20918;51.138;17.370;2022-12-15T15:40:40;57.38;;;29.80;;
34695;SDS011;20918;51.138;17.370;2022-12-15T15:43:41;64.67;;;33.53;;
34695;SDS011;20918;51.138;17.370;2022-12-15T15:46:47;107.03;;;51.33;;
34695;SDS011;20918;51.138;17.370;2022-12-15T15:49:51;108.92;;;46.85;;
34695;SDS011;20918;51.138;17.370;2022-12-15T15:52:57;96.87;;;43.02;;
34695;SDS011;20918;51.138;17.370;2022-12-15T15:55:59;95.50;;;51.37;;
34695;SDS011;20918;51.138;17.370;2022-12-15T15:59:09;81.35;;;41.58;;
34695;SDS011;20918;51.138;17.370;2022-12-15T16:02:14;97.30;;;46.77;;
34695;SDS011;20918;51.138;17.370;2022-12-15T16:05:15;57.30;;;29.55;;
34695;SDS011;20918;51.138;17.370;2022-12-15T16:08:17;49.45;;;25.70;;
34695;SDS011;20918;51.138;17.370;2022-12-15T16:11:23;49.50;;;25.25;;
34695;SDS011;20918;51.138;17.370;2022-12-15T16:14:27;56.37;;;27.22;;
34695;SDS011;20918;51.138;17.370;2022-12-15T16:17:29;43.83;;;22.35;;
34695;SDS011;20918;51.138;17.370;2022-12-15T16:20:31;54.83;;;25.72;;
34695;SDS011;20918;51.138;17.370;2022-12-15T16:23:38;53.35;;;25.88;;
34695;SDS011;20918;51.138;17.370;2022-12-15T16:26:46;67.87;;;33.55;;
34695;SDS011;20918;51.138;17.370;2022-12-15T16:29:49;68.00;;;33.80;;
34695;SDS011;20918;51.138;17.370;2022-12-15T16:32:51;95.67;;;41.40;;
34695;SDS011;20918;51.138;17.370;2022-12-15T16:35:54;85.60;;;42.27;;
34695;SDS011;20918;51.138;17.370;2022-12-15T16:38:55;97.62;;;52.58;;
34695;SDS011;20918;51.138;17.370;2022-12-15T16:41:56;84.97;;;43.28;;
34695;SDS011;20918;51.138;17.370;2022-12-15T16:44:58;86.07;;;40.53;;
34695;SDS011;20918;51.138;17.370;2022-12-15T16:48:04;65.90;;;33.23;;
34695;SDS011;20918;51.138;17.370;2022-12-15T16:51:06;69.87;;;31.17;;
34695;SDS011;20918;51.138;17.370;2022-12-15T16:54:15;70.83;;;31.07;;
34695;SDS011;20918;51.138;17.370;2022-12-15T16:57:20;66.50;;;30.73;;
34695;SDS011;20918;51.138;17.370;2022-12-15T17:00:22;68.50;;;32.30;;
34695;SDS011;20918;51.138;17.370;2022-12-15T17:03:27;61.83;;;30.20;;
34695;SDS011;20918;51.138;17.370;2022-12-15T17:06:29;59.13;;;27.03;;
34695;SDS011;20918;51.138;17.370;2022-12-15T17:09:30;55.67;;;27.50;;
34695;SDS011;20918;51.138;17.370;2022-12-15T17:12:34;65.77;;;30.73;;
34695;SDS011;20918;51.138;17.370;2022-12-15T17:15:36;68.77;;;31.77;;
34695;SDS011;20918;51.138;17.370;2022-12-15T17:18:39;75.47;;;36.03;;
34695;SDS011;20918;51.138;17.370;2022-12-15T17:21:44;81.33;;;36.17;;
34695;SDS011;20918;51.138;17.370;2022-12-15T17:27:53;79.57;;;35.90;;
34695;SDS011;20918;51.138;17.370;2022-12-15T17:30:55;100.20;;;41.67;;
34695;SDS011;20918;51.138;17.370;2022-12-15T17:33:57;136.27;;;50.20;;
34695;SDS011;20918;51.138;17.370;2022-12-15T17:37:00;205.50;;;64.07;;
34695;SDS011;20918;51.138;17.370;2022-12-15T17:40:14;232.47;;;69.83;;
34695;SDS011;20918;51.138;17.370;2022-12-15T17:43:23;182.80;;;63.97;;
34695;SDS011;20918;51.138;17.370;2022-12-15T17:46:26;99.53;;;41.13;;
34695;SDS011;20918;51.138;17.370;2022-12-15T17:49:27;110.83;;;44.43;;
34695;SDS011;20918;51.138;17.370;2022-12-15T17:52:29;130.33;;;47.23;;
34695;SDS011;20918;51.138;17.370;2022-12-15T17:55:33;99.43;;;40.40;;
34695;SDS011;20918;51.138;17.370;2022-12-15T17:58:34;89.37;;;37.10;;
34695;SDS011;20918;51.138;17.370;2022-12-15T18:01:36;88.40;;;37.93;;
34695;SDS011;20918;51.138;17.370;2022-12-15T18:04:37;96.37;;;38.63;;
34695;SDS011;20918;51.138;17.370;2022-12-15T18:07:39;90.07;;;39.20;;
34695;SDS011;20918;51.138;17.370;2022-12-15T18:10:40;91.40;;;39.53;;
34695;SDS011;20918;51.138;17.370;2022-12-15T18:13:42;108.87;;;46.73;;
34695;SDS011;20918;51.138;17.370;2022-12-15T18:16:45;117.47;;;48.40;;
34695;SDS011;20918;51.138;17.370;2022-12-15T18:19:47;106.37;;;45.37;;
34695;SDS011;20918;51.138;17.370;2022-12-15T18:22:48;107.50;;;45.90;;
34695;SDS011;20918;51.138;17.370;2022-12-15T18:25:52;93.77;;;41.70;;
34695;SDS011;20918;51.138;17.370;2022-12-15T18:28:53;104.57;;;41.97;;
34695;SDS011;20918;51.138;17.370;2022-12-15T18:31:55;210.73;;;63.93;;
34695;SDS011;20918;51.138;17.370;2022-12-15T18:34:58;139.63;;;48.00;;
34695;SDS011;20918;51.138;17.370;2022-12-15T18:38:00;193.53;;;59.73;;
34695;SDS011;20918;51.138;17.370;2022-12-15T18:41:01;183.07;;;60.00;;
34695;SDS011;20918;51.138;17.370;2022-12-15T18:44:08;192.00;;;72.37;;
34695;SDS011;20918;51.138;17.370;2022-12-15T18:47:23;191.80;;;76.07;;
34695;SDS011;20918;51.138;17.370;2022-12-15T18:50:28;169.03;;;64.83;;
34695;SDS011;20918;51.138;17.370;2022-12-15T18:54:04;171.97;;;61.93;;
34695;SDS011;20918;51.138;17.370;2022-12-15T19:00:36;199.27;;;76.05;;
34695;SDS011;20918;51.138;17.370;2022-12-15T19:03:38;163.33;;;67.60;;
34695;SDS011;20918;51.138;17.370;2022-12-15T19:06:40;171.13;;;67.93;;
34695;SDS011;20918;51.138;17.370;2022-12-15T19:09:42;179.67;;;71.17;;
34695;SDS011;20918;51.138;17.370;2022-12-15T19:12:47;179.87;;;70.67;;
34695;SDS011;20918;51.138;17.370;2022-12-15T19:15:48;173.73;;;68.63;;
34695;SDS011;20918;51.138;17.370;2022-12-15T19:18:51;200.23;;;79.93;;
34695;SDS011;20918;51.138;17.370;2022-12-15T19:22:11;180.72;;;74.60;;
34695;SDS011;20918;51.138;17.370;2022-12-15T19:25:29;178.07;;;72.53;;
34695;SDS011;20918;51.138;17.370;2022-12-15T19:28:31;185.97;;;67.97;;
34695;SDS011;20918;51.138;17.370;2022-12-15T19:31:37;178.70;;;68.83;;